Pagrindinis puslapis
METAR-TAF:

METAR-TAF

Oro uostai :

Ilam, Iranas

platuma: 33-35-09N, ilguma: 046-24-20E, Aukštis: 1334 m

Dabartinis oras

Ataskaita buvo paskelbta 41 minutes, ne 15:00 UTC
Vėjas 6 kt iš Šiaurės/Šiaurės Rytų
Temperatūra 21°C
Drėgmė 35%
Slėgis 1015 hPa
Matomumas 10 km arba daugiau
nėra debesų žemiau 1500 m ir nėra kamuolinių lietaus debesų

METAR: OICI 241500Z 02006KT CAVOK 21/05 Q1014 A2997

Laikas: 20:11 (15:41 UTC)

Prognozė

Ataskaita buvo paskelbta 4 valandos ir 11 minutes, ne 11:30 UTC
Prognozė galioja nuo 24 metu 12 UTC su 25 metu 18 UTC
Vėjas 10 kt iš Rytų/Šiaurės Rytų
Matomumas: 7000 m
Laikinai
nuo 24 metu 12 UTC su 24 metu 16 UTC
Vėjas 14 kt iš Šiaurės/Šiaurės Rytų su gūsio iki 24 kt
Matomumas: 4000 m
Smėlis
Tapsmas
nuo 24 metu 16 UTC su 24 metu 18 UTC
Vėjas 8 kt iš Rytų/Šiaurės Rytų
Laikinai
nuo 25 metu 06 UTC su 25 metu 12 UTC
Vėjas 16 kt iš Rytų

TAF: OICI 241130Z 2412/2518 06010KT 7000 NSC TEMPO 2412/2416 03014G24KT 4000 SA BECMG 2416/2418 06008KT TEMPO 2506/2512 08016KT

Orai ataskaitas ir orų prognozės (METAR, TAF).

turimą stotys yra geltonos ir raudonos taškus žemėlapyje.

Perkelti pele per norėdami pamatyti stoties vardą.

Tada spustelėkite, norėdami matyti oro stebėjimo ir prognozės.

Norėdami pakeisti žemėlapį: spustelėkite ant žalios mygtukų su juodo kryžiaus žemyn,; žalią mygtuką su brūkšneliu, jei norite nutolinti; arba žalių rodyklių gretimoms žemėlapius.


METAR-TAF: